sensor_id;sensor_type;location;lat;lon;timestamp;P1;durP1;ratioP1;P2;durP2;ratioP2
66487;SDS011;53304;54.550;18.526;2023-04-16T00:01:45;4.45;;;2.92;;
66487;SDS011;53304;54.550;18.526;2023-04-16T00:04:10;4.55;;;2.40;;
66487;SDS011;53304;54.550;18.526;2023-04-16T00:06:36;4.13;;;2.50;;
66487;SDS011;53304;54.550;18.526;2023-04-16T00:09:01;3.78;;;2.35;;
66487;SDS011;53304;54.550;18.526;2023-04-16T00:11:29;3.72;;;2.38;;
66487;SDS011;53304;54.550;18.526;2023-04-16T00:13:54;4.07;;;2.40;;
66487;SDS011;53304;54.550;18.526;2023-04-16T00:16:20;4.68;;;2.38;;
66487;SDS011;53304;54.550;18.526;2023-04-16T00:18:45;3.92;;;2.20;;
66487;SDS011;53304;54.550;18.526;2023-04-16T00:21:15;4.45;;;2.47;;
66487;SDS011;53304;54.550;18.526;2023-04-16T00:23:41;3.72;;;2.05;;
66487;SDS011;53304;54.550;18.526;2023-04-16T00:26:07;3.95;;;2.40;;
66487;SDS011;53304;54.550;18.526;2023-04-16T00:28:32;3.00;;;2.20;;
66487;SDS011;53304;54.550;18.526;2023-04-16T00:31:00;3.65;;;2.22;;
66487;SDS011;53304;54.550;18.526;2023-04-16T00:33:28;4.47;;;2.30;;
66487;SDS011;53304;54.550;18.526;2023-04-16T00:35:54;4.18;;;2.17;;
66487;SDS011;53304;54.550;18.526;2023-04-16T00:38:22;4.22;;;2.58;;
66487;SDS011;53304;54.550;18.526;2023-04-16T00:40:47;3.90;;;2.30;;
66487;SDS011;53304;54.550;18.526;2023-04-16T00:43:20;5.07;;;2.50;;
66487;SDS011;53304;54.550;18.526;2023-04-16T00:45:51;3.30;;;2.22;;
66487;SDS011;53304;54.550;18.526;2023-04-16T00:48:18;3.83;;;2.40;;
66487;SDS011;53304;54.550;18.526;2023-04-16T00:50:44;3.47;;;2.17;;
66487;SDS011;53304;54.550;18.526;2023-04-16T00:53:10;3.97;;;2.42;;
66487;SDS011;53304;54.550;18.526;2023-04-16T00:55:37;4.43;;;2.40;;
66487;SDS011;53304;54.550;18.526;2023-04-16T00:58:03;3.47;;;2.17;;
66487;SDS011;53304;54.550;18.526;2023-04-16T01:03:47;3.47;;;2.20;;
66487;SDS011;53304;54.550;18.526;2023-04-16T01:06:16;4.47;;;2.22;;
66487;SDS011;53304;54.550;18.526;2023-04-16T01:08:45;4.70;;;2.13;;
66487;SDS011;53304;54.550;18.526;2023-04-16T01:11:13;3.70;;;2.40;;
66487;SDS011;53304;54.550;18.526;2023-04-16T01:13:39;3.97;;;2.30;;
66487;SDS011;53304;54.550;18.526;2023-04-16T01:16:05;3.35;;;2.13;;
66487;SDS011;53304;54.550;18.526;2023-04-16T01:18:32;4.07;;;2.20;;
66487;SDS011;53304;54.550;18.526;2023-04-16T01:21:00;4.30;;;2.20;;
66487;SDS011;53304;54.550;18.526;2023-04-16T01:23:26;3.65;;;2.38;;
66487;SDS011;53304;54.550;18.526;2023-04-16T01:25:51;4.07;;;2.38;;
66487;SDS011;53304;54.550;18.526;2023-04-16T01:28:16;3.78;;;2.13;;
66487;SDS011;53304;54.550;18.526;2023-04-16T01:30:45;5.22;;;2.30;;
66487;SDS011;53304;54.550;18.526;2023-04-16T01:33:11;3.83;;;2.17;;
66487;SDS011;53304;54.550;18.526;2023-04-16T01:35:37;3.17;;;2.30;;
66487;SDS011;53304;54.550;18.526;2023-04-16T01:38:02;4.10;;;2.40;;
66487;SDS011;53304;54.550;18.526;2023-04-16T01:40:29;4.53;;;2.20;;
66487;SDS011;53304;54.550;18.526;2023-04-16T01:42:55;3.97;;;2.38;;
66487;SDS011;53304;54.550;18.526;2023-04-16T01:45:20;4.40;;;2.28;;
66487;SDS011;53304;54.550;18.526;2023-04-16T01:47:48;3.60;;;2.17;;
66487;SDS011;53304;54.550;18.526;2023-04-16T01:50:16;4.07;;;2.55;;
66487;SDS011;53304;54.550;18.526;2023-04-16T01:52:45;4.72;;;2.20;;
66487;SDS011;53304;54.550;18.526;2023-04-16T01:55:14;4.85;;;2.45;;
66487;SDS011;53304;54.550;18.526;2023-04-16T01:57:39;4.28;;;2.67;;
66487;SDS011;53304;54.550;18.526;2023-04-16T02:00:07;4.75;;;2.65;;
66487;SDS011;53304;54.550;18.526;2023-04-16T02:02:36;7.10;;;2.78;;
66487;SDS011;53304;54.550;18.526;2023-04-16T02:05:02;5.05;;;2.92;;
66487;SDS011;53304;54.550;18.526;2023-04-16T02:07:27;5.20;;;2.78;;
66487;SDS011;53304;54.550;18.526;2023-04-16T02:09:53;5.25;;;3.00;;
66487;SDS011;53304;54.550;18.526;2023-04-16T02:12:21;5.00;;;2.60;;
66487;SDS011;53304;54.550;18.526;2023-04-16T02:14:47;5.22;;;2.80;;
66487;SDS011;53304;54.550;18.526;2023-04-16T02:17:12;5.55;;;2.97;;
66487;SDS011;53304;54.550;18.526;2023-04-16T02:19:41;4.78;;;2.97;;
66487;SDS011;53304;54.550;18.526;2023-04-16T02:22:06;4.57;;;2.58;;
66487;SDS011;53304;54.550;18.526;2023-04-16T02:24:31;4.45;;;2.70;;
66487;SDS011;53304;54.550;18.526;2023-04-16T02:26:59;4.95;;;2.60;;
66487;SDS011;53304;54.550;18.526;2023-04-16T02:29:25;5.70;;;2.90;;
66487;SDS011;53304;54.550;18.526;2023-04-16T02:31:53;4.82;;;2.60;;
66487;SDS011;53304;54.550;18.526;2023-04-16T02:34:18;4.85;;;2.88;;
66487;SDS011;53304;54.550;18.526;2023-04-16T02:36:44;5.28;;;2.90;;
66487;SDS011;53304;54.550;18.526;2023-04-16T02:39:14;4.80;;;2.78;;
66487;SDS011;53304;54.550;18.526;2023-04-16T02:41:39;4.90;;;2.72;;
66487;SDS011;53304;54.550;18.526;2023-04-16T02:44:05;4.65;;;2.92;;
66487;SDS011;53304;54.550;18.526;2023-04-16T02:46:30;4.65;;;2.75;;
66487;SDS011;53304;54.550;18.526;2023-04-16T02:48:58;5.20;;;2.80;;
66487;SDS011;53304;54.550;18.526;2023-04-16T02:51:26;5.22;;;2.70;;
66487;SDS011;53304;54.550;18.526;2023-04-16T02:53:53;4.47;;;2.75;;
66487;SDS011;53304;54.550;18.526;2023-04-16T02:56:19;5.15;;;2.83;;
66487;SDS011;53304;54.550;18.526;2023-04-16T02:58:44;4.88;;;3.25;;
66487;SDS011;53304;54.550;18.526;2023-04-16T03:01:12;5.15;;;2.88;;
66487;SDS011;53304;54.550;18.526;2023-04-16T03:03:37;5.15;;;3.00;;
66487;SDS011;53304;54.550;18.526;2023-04-16T03:06:03;4.68;;;2.80;;
66487;SDS011;53304;54.550;18.526;2023-04-16T03:08:28;4.40;;;2.80;;
66487;SDS011;53304;54.550;18.526;2023-04-16T03:10:54;5.03;;;2.80;;
66487;SDS011;53304;54.550;18.526;2023-04-16T03:13:21;5.68;;;2.65;;
66487;SDS011;53304;54.550;18.526;2023-04-16T03:15:47;5.60;;;2.90;;
66487;SDS011;53304;54.550;18.526;2023-04-16T03:18:16;4.35;;;2.78;;
66487;SDS011;53304;54.550;18.526;2023-04-16T03:20:44;4.15;;;2.80;;
66487;SDS011;53304;54.550;18.526;2023-04-16T03:23:09;14.27;;;3.55;;
66487;SDS011;53304;54.550;18.526;2023-04-16T03:25:34;4.45;;;2.88;;
66487;SDS011;53304;54.550;18.526;2023-04-16T03:28:03;4.32;;;2.70;;
66487;SDS011;53304;54.550;18.526;2023-04-16T03:30:28;6.43;;;2.92;;
66487;SDS011;53304;54.550;18.526;2023-04-16T03:32:54;4.97;;;3.20;;
66487;SDS011;53304;54.550;18.526;2023-04-16T03:35:22;5.45;;;3.15;;
66487;SDS011;53304;54.550;18.526;2023-04-16T03:37:47;5.32;;;3.10;;
66487;SDS011;53304;54.550;18.526;2023-04-16T03:40:14;5.47;;;3.00;;
66487;SDS011;53304;54.550;18.526;2023-04-16T03:42:39;5.63;;;3.28;;
66487;SDS011;53304;54.550;18.526;2023-04-16T03:45:05;5.00;;;2.95;;
66487;SDS011;53304;54.550;18.526;2023-04-16T03:47:30;5.00;;;3.00;;
66487;SDS011;53304;54.550;18.526;2023-04-16T03:49:56;4.93;;;2.90;;
66487;SDS011;53304;54.550;18.526;2023-04-16T03:52:21;6.95;;;3.05;;
66487;SDS011;53304;54.550;18.526;2023-04-16T03:54:47;4.82;;;3.05;;
66487;SDS011;53304;54.550;18.526;2023-04-16T03:57:12;4.65;;;2.90;;
66487;SDS011;53304;54.550;18.526;2023-04-16T03:59:37;4.57;;;3.03;;
66487;SDS011;53304;54.550;18.526;2023-04-16T04:02:03;5.18;;;3.05;;
66487;SDS011;53304;54.550;18.526;2023-04-16T04:04:31;5.07;;;3.10;;
66487;SDS011;53304;54.550;18.526;2023-04-16T04:06:56;7.63;;;3.20;;
66487;SDS011;53304;54.550;18.526;2023-04-16T04:09:21;4.72;;;2.92;;
66487;SDS011;53304;54.550;18.526;2023-04-16T04:11:49;5.70;;;3.28;;
66487;SDS011;53304;54.550;18.526;2023-04-16T04:14:14;6.63;;;2.95;;
66487;SDS011;53304;54.550;18.526;2023-04-16T04:16:40;5.80;;;3.00;;
66487;SDS011;53304;54.550;18.526;2023-04-16T04:19:07;5.07;;;3.00;;
66487;SDS011;53304;54.550;18.526;2023-04-16T04:21:41;6.07;;;3.20;;
66487;SDS011;53304;54.550;18.526;2023-04-16T04:24:06;5.60;;;3.20;;
66487;SDS011;53304;54.550;18.526;2023-04-16T04:26:31;4.20;;;2.80;;
66487;SDS011;53304;54.550;18.526;2023-04-16T04:28:57;5.30;;;2.70;;
66487;SDS011;53304;54.550;18.526;2023-04-16T04:31:27;4.85;;;2.90;;
66487;SDS011;53304;54.550;18.526;2023-04-16T04:33:55;6.28;;;3.00;;
66487;SDS011;53304;54.550;18.526;2023-04-16T04:36:23;5.32;;;2.85;;
66487;SDS011;53304;54.550;18.526;2023-04-16T04:38:48;4.10;;;2.75;;
66487;SDS011;53304;54.550;18.526;2023-04-16T04:41:16;4.95;;;3.15;;
66487;SDS011;53304;54.550;18.526;2023-04-16T04:43:42;5.97;;;3.17;;
66487;SDS011;53304;54.550;18.526;2023-04-16T04:46:10;4.35;;;2.95;;
66487;SDS011;53304;54.550;18.526;2023-04-16T04:48:36;6.30;;;3.00;;
66487;SDS011;53304;54.550;18.526;2023-04-16T04:51:04;5.20;;;3.17;;
66487;SDS011;53304;54.550;18.526;2023-04-16T04:53:31;4.43;;;2.75;;
66487;SDS011;53304;54.550;18.526;2023-04-16T04:55:59;7.18;;;2.40;;
66487;SDS011;53304;54.550;18.526;2023-04-16T04:58:27;5.32;;;2.80;;
66487;SDS011;53304;54.550;18.526;2023-04-16T05:00:52;5.47;;;3.00;;
66487;SDS011;53304;54.550;18.526;2023-04-16T05:03:18;7.50;;;3.20;;
66487;SDS011;53304;54.550;18.526;2023-04-16T05:05:47;4.70;;;2.83;;
66487;SDS011;53304;54.550;18.526;2023-04-16T05:08:15;4.82;;;2.65;;
66487;SDS011;53304;54.550;18.526;2023-04-16T05:10:40;5.68;;;2.83;;
66487;SDS011;53304;54.550;18.526;2023-04-16T05:13:06;5.70;;;2.80;;
66487;SDS011;53304;54.550;18.526;2023-04-16T05:15:33;4.85;;;2.83;;
66487;SDS011;53304;54.550;18.526;2023-04-16T05:18:01;8.20;;;3.13;;
66487;SDS011;53304;54.550;18.526;2023-04-16T05:20:29;4.90;;;2.72;;
66487;SDS011;53304;54.550;18.526;2023-04-16T05:22:57;5.45;;;3.00;;
66487;SDS011;53304;54.550;18.526;2023-04-16T05:25:24;7.45;;;3.10;;
66487;SDS011;53304;54.550;18.526;2023-04-16T05:27:50;7.25;;;3.40;;
66487;SDS011;53304;54.550;18.526;2023-04-16T05:30:20;8.85;;;3.75;;
66487;SDS011;53304;54.550;18.526;2023-04-16T05:32:45;7.03;;;3.00;;
66487;SDS011;53304;54.550;18.526;2023-04-16T05:35:11;4.70;;;3.03;;
66487;SDS011;53304;54.550;18.526;2023-04-16T05:37:36;6.63;;;2.63;;
66487;SDS011;53304;54.550;18.526;2023-04-16T05:40:04;5.78;;;3.00;;
66487;SDS011;53304;54.550;18.526;2023-04-16T05:42:32;5.00;;;2.90;;
66487;SDS011;53304;54.550;18.526;2023-04-16T05:44:57;8.80;;;3.45;;
66487;SDS011;53304;54.550;18.526;2023-04-16T05:47:23;4.82;;;2.92;;
66487;SDS011;53304;54.550;18.526;2023-04-16T05:49:51;6.65;;;2.85;;
66487;SDS011;53304;54.550;18.526;2023-04-16T05:52:19;8.13;;;2.90;;
66487;SDS011;53304;54.550;18.526;2023-04-16T05:54:47;6.97;;;2.95;;
66487;SDS011;53304;54.550;18.526;2023-04-16T05:57:12;6.00;;;3.03;;
66487;SDS011;53304;54.550;18.526;2023-04-16T05:59:40;6.45;;;2.97;;
66487;SDS011;53304;54.550;18.526;2023-04-16T06:02:11;5.38;;;3.00;;
66487;SDS011;53304;54.550;18.526;2023-04-16T06:04:36;4.57;;;2.60;;
66487;SDS011;53304;54.550;18.526;2023-04-16T06:07:01;6.07;;;3.03;;
66487;SDS011;53304;54.550;18.526;2023-04-16T06:09:32;5.55;;;2.90;;
66487;SDS011;53304;54.550;18.526;2023-04-16T06:11:57;7.47;;;3.20;;
66487;SDS011;53304;54.550;18.526;2023-04-16T06:14:23;4.45;;;2.80;;
66487;SDS011;53304;54.550;18.526;2023-04-16T06:16:51;16.90;;;3.72;;
66487;SDS011;53304;54.550;18.526;2023-04-16T06:19:19;7.53;;;2.90;;
66487;SDS011;53304;54.550;18.526;2023-04-16T06:21:44;4.90;;;2.90;;
66487;SDS011;53304;54.550;18.526;2023-04-16T06:24:10;6.53;;;3.00;;
66487;SDS011;53304;54.550;18.526;2023-04-16T06:26:35;7.68;;;2.85;;
66487;SDS011;53304;54.550;18.526;2023-04-16T06:29:03;7.55;;;3.08;;
66487;SDS011;53304;54.550;18.526;2023-04-16T06:31:29;5.03;;;2.70;;
66487;SDS011;53304;54.550;18.526;2023-04-16T06:33:55;10.73;;;2.90;;
66487;SDS011;53304;54.550;18.526;2023-04-16T06:36:20;5.85;;;2.83;;
66487;SDS011;53304;54.550;18.526;2023-04-16T06:38:48;8.48;;;3.05;;
66487;SDS011;53304;54.550;18.526;2023-04-16T06:41:15;6.25;;;2.95;;
66487;SDS011;53304;54.550;18.526;2023-04-16T06:43:43;5.40;;;2.78;;
66487;SDS011;53304;54.550;18.526;2023-04-16T06:46:13;6.30;;;2.80;;
66487;SDS011;53304;54.550;18.526;2023-04-16T06:48:39;5.25;;;2.63;;
66487;SDS011;53304;54.550;18.526;2023-04-16T06:51:04;7.55;;;2.90;;
66487;SDS011;53304;54.550;18.526;2023-04-16T06:53:32;5.72;;;2.95;;
66487;SDS011;53304;54.550;18.526;2023-04-16T06:55:57;8.30;;;2.90;;
66487;SDS011;53304;54.550;18.526;2023-04-16T06:58:25;4.80;;;2.40;;
66487;SDS011;53304;54.550;18.526;2023-04-16T07:00:58;5.78;;;2.70;;
66487;SDS011;53304;54.550;18.526;2023-04-16T07:03:23;4.47;;;2.58;;
66487;SDS011;53304;54.550;18.526;2023-04-16T07:05:49;5.00;;;2.60;;
66487;SDS011;53304;54.550;18.526;2023-04-16T07:08:14;4.00;;;2.45;;
66487;SDS011;53304;54.550;18.526;2023-04-16T07:10:40;4.68;;;2.70;;
66487;SDS011;53304;54.550;18.526;2023-04-16T07:13:06;5.10;;;2.50;;
66487;SDS011;53304;54.550;18.526;2023-04-16T07:15:34;6.45;;;2.90;;
66487;SDS011;53304;54.550;18.526;2023-04-16T07:18:00;5.97;;;3.00;;
66487;SDS011;53304;54.550;18.526;2023-04-16T07:20:25;4.90;;;2.63;;
66487;SDS011;53304;54.550;18.526;2023-04-16T07:22:56;4.05;;;2.40;;
66487;SDS011;53304;54.550;18.526;2023-04-16T07:25:23;4.13;;;2.47;;
66487;SDS011;53304;54.550;18.526;2023-04-16T07:27:48;5.78;;;2.63;;
66487;SDS011;53304;54.550;18.526;2023-04-16T07:30:16;6.38;;;2.90;;
66487;SDS011;53304;54.550;18.526;2023-04-16T07:32:41;4.57;;;2.75;;
66487;SDS011;53304;54.550;18.526;2023-04-16T07:35:07;4.95;;;2.67;;
66487;SDS011;53304;54.550;18.526;2023-04-16T07:37:33;4.57;;;2.58;;
66487;SDS011;53304;54.550;18.526;2023-04-16T07:39:58;5.53;;;2.50;;
66487;SDS011;53304;54.550;18.526;2023-04-16T07:42:26;5.15;;;2.60;;
66487;SDS011;53304;54.550;18.526;2023-04-16T07:44:52;3.45;;;2.50;;
66487;SDS011;53304;54.550;18.526;2023-04-16T07:47:22;5.25;;;2.70;;
66487;SDS011;53304;54.550;18.526;2023-04-16T07:49:50;4.45;;;2.42;;
66487;SDS011;53304;54.550;18.526;2023-04-16T07:52:20;5.03;;;2.50;;
66487;SDS011;53304;54.550;18.526;2023-04-16T07:54:46;4.53;;;2.47;;
66487;SDS011;53304;54.550;18.526;2023-04-16T07:57:16;4.28;;;2.53;;
66487;SDS011;53304;54.550;18.526;2023-04-16T07:59:41;4.90;;;2.40;;
66487;SDS011;53304;54.550;18.526;2023-04-16T08:02:09;3.72;;;2.63;;
66487;SDS011;53304;54.550;18.526;2023-04-16T08:04:43;4.18;;;2.53;;
66487;SDS011;53304;54.550;18.526;2023-04-16T08:07:10;5.65;;;2.58;;
66487;SDS011;53304;54.550;18.526;2023-04-16T08:09:45;4.03;;;2.42;;
66487;SDS011;53304;54.550;18.526;2023-04-16T08:12:11;4.38;;;2.50;;
66487;SDS011;53304;54.550;18.526;2023-04-16T08:14:39;4.13;;;2.50;;
66487;SDS011;53304;54.550;18.526;2023-04-16T08:17:05;4.00;;;2.35;;
66487;SDS011;53304;54.550;18.526;2023-04-16T08:19:30;4.95;;;2.42;;
66487;SDS011;53304;54.550;18.526;2023-04-16T08:21:59;5.10;;;2.47;;
66487;SDS011;53304;54.550;18.526;2023-04-16T08:24:27;7.57;;;2.53;;
66487;SDS011;53304;54.550;18.526;2023-04-16T08:26:55;4.63;;;2.45;;
66487;SDS011;53304;54.550;18.526;2023-04-16T08:29:22;12.45;;;2.78;;
66487;SDS011;53304;54.550;18.526;2023-04-16T08:31:53;5.72;;;2.40;;
66487;SDS011;53304;54.550;18.526;2023-04-16T08:34:19;6.80;;;2.38;;
66487;SDS011;53304;54.550;18.526;2023-04-16T08:36:44;8.13;;;2.60;;
66487;SDS011;53304;54.550;18.526;2023-04-16T08:39:10;7.00;;;2.50;;
66487;SDS011;53304;54.550;18.526;2023-04-16T08:41:36;7.28;;;2.80;;
66487;SDS011;53304;54.550;18.526;2023-04-16T08:44:10;10.18;;;2.72;;
66487;SDS011;53304;54.550;18.526;2023-04-16T08:46:43;14.40;;;3.17;;
66487;SDS011;53304;54.550;18.526;2023-04-16T08:49:14;9.65;;;3.13;;
66487;SDS011;53304;54.550;18.526;2023-04-16T08:51:42;10.48;;;3.35;;
66487;SDS011;53304;54.550;18.526;2023-04-16T08:54:14;12.67;;;3.67;;
66487;SDS011;53304;54.550;18.526;2023-04-16T08:56:49;13.82;;;3.38;;
66487;SDS011;53304;54.550;18.526;2023-04-16T08:59:15;14.63;;;3.95;;
66487;SDS011;53304;54.550;18.526;2023-04-16T09:01:41;11.63;;;3.38;;
66487;SDS011;53304;54.550;18.526;2023-04-16T09:04:12;12.55;;;3.13;;
66487;SDS011;53304;54.550;18.526;2023-04-16T09:06:39;8.80;;;2.80;;
66487;SDS011;53304;54.550;18.526;2023-04-16T09:09:08;10.45;;;2.75;;
66487;SDS011;53304;54.550;18.526;2023-04-16T09:11:35;5.00;;;2.42;;
66487;SDS011;53304;54.550;18.526;2023-04-16T09:14:06;6.47;;;2.70;;
66487;SDS011;53304;54.550;18.526;2023-04-16T09:16:33;6.55;;;2.60;;
66487;SDS011;53304;54.550;18.526;2023-04-16T09:19:04;7.75;;;2.42;;
66487;SDS011;53304;54.550;18.526;2023-04-16T09:21:29;6.75;;;2.60;;
66487;SDS011;53304;54.550;18.526;2023-04-16T09:23:59;5.93;;;2.33;;
66487;SDS011;53304;54.550;18.526;2023-04-16T09:26:28;5.32;;;2.50;;
66487;SDS011;53304;54.550;18.526;2023-04-16T09:28:53;6.07;;;2.50;;
66487;SDS011;53304;54.550;18.526;2023-04-16T09:31:19;5.03;;;2.13;;
66487;SDS011;53304;54.550;18.526;2023-04-16T09:34:02;6.20;;;2.30;;
66487;SDS011;53304;54.550;18.526;2023-04-16T09:36:29;4.32;;;2.05;;
66487;SDS011;53304;54.550;18.526;2023-04-16T09:38:57;4.72;;;2.60;;
66487;SDS011;53304;54.550;18.526;2023-04-16T09:41:28;5.18;;;2.38;;
66487;SDS011;53304;54.550;18.526;2023-04-16T09:44:01;5.22;;;2.40;;
66487;SDS011;53304;54.550;18.526;2023-04-16T09:46:35;5.55;;;2.60;;
66487;SDS011;53304;54.550;18.526;2023-04-16T09:51:41;4.70;;;2.30;;
66487;SDS011;53304;54.550;18.526;2023-04-16T09:54:11;6.45;;;2.45;;
66487;SDS011;53304;54.550;18.526;2023-04-16T09:56:43;4.45;;;2.28;;
66487;SDS011;53304;54.550;18.526;2023-04-16T09:59:17;6.38;;;2.47;;
66487;SDS011;53304;54.550;18.526;2023-04-16T10:01:43;4.03;;;2.30;;
66487;SDS011;53304;54.550;18.526;2023-04-16T10:04:10;4.28;;;2.30;;
66487;SDS011;53304;54.550;18.526;2023-04-16T10:06:36;4.32;;;2.33;;
66487;SDS011;53304;54.550;18.526;2023-04-16T10:09:07;4.00;;;2.25;;
66487;SDS011;53304;54.550;18.526;2023-04-16T10:11:37;5.45;;;2.33;;
66487;SDS011;53304;54.550;18.526;2023-04-16T10:14:03;3.72;;;2.20;;
66487;SDS011;53304;54.550;18.526;2023-04-16T10:16:33;4.95;;;2.40;;
66487;SDS011;53304;54.550;18.526;2023-04-16T10:18:59;3.72;;;2.15;;
66487;SDS011;53304;54.550;18.526;2023-04-16T10:21:25;4.13;;;2.30;;
66487;SDS011;53304;54.550;18.526;2023-04-16T10:23:57;3.88;;;2.15;;
66487;SDS011;53304;54.550;18.526;2023-04-16T10:26:27;3.97;;;2.20;;
66487;SDS011;53304;54.550;18.526;2023-04-16T10:28:57;4.47;;;2.33;;
66487;SDS011;53304;54.550;18.526;2023-04-16T10:31:22;4.47;;;2.70;;
66487;SDS011;53304;54.550;18.526;2023-04-16T10:33:52;4.07;;;2.28;;
66487;SDS011;53304;54.550;18.526;2023-04-16T10:36:25;4.82;;;2.53;;
66487;SDS011;53304;54.550;18.526;2023-04-16T10:38:57;5.30;;;2.40;;
66487;SDS011;53304;54.550;18.526;2023-04-16T10:41:26;4.90;;;2.60;;
66487;SDS011;53304;54.550;18.526;2023-04-16T10:43:51;5.05;;;2.50;;
66487;SDS011;53304;54.550;18.526;2023-04-16T10:48:42;4.28;;;2.40;;
66487;SDS011;53304;54.550;18.526;2023-04-16T10:51:07;3.85;;;2.30;;
66487;SDS011;53304;54.550;18.526;2023-04-16T10:53:50;5.00;;;2.72;;
66487;SDS011;53304;54.550;18.526;2023-04-16T10:56:21;3.28;;;2.40;;
66487;SDS011;53304;54.550;18.526;2023-04-16T10:58:51;4.25;;;2.88;;
66487;SDS011;53304;54.550;18.526;2023-04-16T11:01:30;5.18;;;2.70;;
66487;SDS011;53304;54.550;18.526;2023-04-16T11:03:59;4.28;;;2.47;;
66487;SDS011;53304;54.550;18.526;2023-04-16T11:06:28;5.45;;;2.83;;
66487;SDS011;53304;54.550;18.526;2023-04-16T11:08:55;4.05;;;2.50;;
66487;SDS011;53304;54.550;18.526;2023-04-16T11:11:23;4.50;;;2.33;;
66487;SDS011;53304;54.550;18.526;2023-04-16T11:13:53;5.38;;;2.75;;
66487;SDS011;53304;54.550;18.526;2023-04-16T11:16:19;4.68;;;2.47;;
66487;SDS011;53304;54.550;18.526;2023-04-16T11:18:48;5.05;;;2.60;;
66487;SDS011;53304;54.550;18.526;2023-04-16T11:21:13;5.25;;;2.58;;
66487;SDS011;53304;54.550;18.526;2023-04-16T11:23:45;4.45;;;2.97;;
66487;SDS011;53304;54.550;18.526;2023-04-16T11:26:27;4.72;;;2.97;;
66487;SDS011;53304;54.550;18.526;2023-04-16T11:28:54;3.63;;;2.47;;
66487;SDS011;53304;54.550;18.526;2023-04-16T11:31:20;4.00;;;2.42;;
66487;SDS011;53304;54.550;18.526;2023-04-16T11:33:47;3.80;;;2.65;;
66487;SDS011;53304;54.550;18.526;2023-04-16T11:36:14;4.93;;;3.10;;
66487;SDS011;53304;54.550;18.526;2023-04-16T11:38:40;5.22;;;2.92;;
66487;SDS011;53304;54.550;18.526;2023-04-16T11:41:06;4.65;;;2.90;;
66487;SDS011;53304;54.550;18.526;2023-04-16T11:43:35;4.88;;;2.75;;
66487;SDS011;53304;54.550;18.526;2023-04-16T11:46:04;5.78;;;2.65;;
66487;SDS011;53304;54.550;18.526;2023-04-16T11:48:48;5.20;;;2.70;;
66487;SDS011;53304;54.550;18.526;2023-04-16T11:53:48;3.88;;;2.60;;
66487;SDS011;53304;54.550;18.526;2023-04-16T11:56:29;4.78;;;2.90;;
66487;SDS011;53304;54.550;18.526;2023-04-16T11:59:14;4.20;;;2.35;;
66487;SDS011;53304;54.550;18.526;2023-04-16T12:01:40;6.00;;;2.70;;
66487;SDS011;53304;54.550;18.526;2023-04-16T12:04:06;4.03;;;2.38;;
66487;SDS011;53304;54.550;18.526;2023-04-16T12:06:34;6.88;;;3.40;;
66487;SDS011;53304;54.550;18.526;2023-04-16T12:09:20;4.55;;;2.80;;
66487;SDS011;53304;54.550;18.526;2023-04-16T12:11:51;3.70;;;2.40;;
66487;SDS011;53304;54.550;18.526;2023-04-16T12:14:19;5.35;;;3.13;;
66487;SDS011;53304;54.550;18.526;2023-04-16T12:16:45;3.95;;;2.60;;
66487;SDS011;53304;54.550;18.526;2023-04-16T12:19:15;5.57;;;3.05;;
66487;SDS011;53304;54.550;18.526;2023-04-16T12:21:44;3.97;;;2.58;;
66487;SDS011;53304;54.550;18.526;2023-04-16T12:24:14;6.43;;;2.80;;
66487;SDS011;53304;54.550;18.526;2023-04-16T12:26:51;5.57;;;3.35;;
66487;SDS011;53304;54.550;18.526;2023-04-16T12:31:54;3.50;;;2.25;;
66487;SDS011;53304;54.550;18.526;2023-04-16T12:34:20;5.30;;;2.38;;
66487;SDS011;53304;54.550;18.526;2023-04-16T12:36:48;6.25;;;2.80;;
66487;SDS011;53304;54.550;18.526;2023-04-16T12:39:29;6.03;;;3.33;;
66487;SDS011;53304;54.550;18.526;2023-04-16T12:41:55;5.30;;;3.00;;
66487;SDS011;53304;54.550;18.526;2023-04-16T12:44:25;5.93;;;3.00;;
66487;SDS011;53304;54.550;18.526;2023-04-16T12:46:51;4.15;;;2.47;;
66487;SDS011;53304;54.550;18.526;2023-04-16T12:49:19;4.65;;;2.70;;
66487;SDS011;53304;54.550;18.526;2023-04-16T12:51:45;6.63;;;3.22;;
66487;SDS011;53304;54.550;18.526;2023-04-16T12:54:10;6.50;;;2.88;;
66487;SDS011;53304;54.550;18.526;2023-04-16T12:56:38;5.22;;;2.78;;
66487;SDS011;53304;54.550;18.526;2023-04-16T12:59:06;5.35;;;2.38;;
66487;SDS011;53304;54.550;18.526;2023-04-16T13:01:34;6.10;;;3.25;;
66487;SDS011;53304;54.550;18.526;2023-04-16T13:04:03;7.45;;;3.85;;
66487;SDS011;53304;54.550;18.526;2023-04-16T13:06:29;7.20;;;3.60;;
66487;SDS011;53304;54.550;18.526;2023-04-16T13:08:58;5.18;;;2.85;;
66487;SDS011;53304;54.550;18.526;2023-04-16T13:11:23;7.57;;;3.88;;
66487;SDS011;53304;54.550;18.526;2023-04-16T13:13:49;6.68;;;3.58;;
66487;SDS011;53304;54.550;18.526;2023-04-16T13:16:16;6.45;;;3.97;;
66487;SDS011;53304;54.550;18.526;2023-04-16T13:18:42;5.15;;;2.95;;
66487;SDS011;53304;54.550;18.526;2023-04-16T13:21:07;4.13;;;2.80;;
66487;SDS011;53304;54.550;18.526;2023-04-16T13:23:35;8.98;;;3.30;;
66487;SDS011;53304;54.550;18.526;2023-04-16T13:26:03;7.78;;;3.03;;
66487;SDS011;53304;54.550;18.526;2023-04-16T13:28:29;8.95;;;2.80;;
66487;SDS011;53304;54.550;18.526;2023-04-16T13:30:54;8.13;;;3.13;;
66487;SDS011;53304;54.550;18.526;2023-04-16T13:33:22;10.50;;;2.80;;
66487;SDS011;53304;54.550;18.526;2023-04-16T13:35:50;5.93;;;2.80;;
66487;SDS011;53304;54.550;18.526;2023-04-16T13:38:18;4.95;;;2.90;;
66487;SDS011;53304;54.550;18.526;2023-04-16T13:40:44;6.13;;;2.88;;
66487;SDS011;53304;54.550;18.526;2023-04-16T13:43:09;5.85;;;3.08;;
66487;SDS011;53304;54.550;18.526;2023-04-16T13:45:42;8.05;;;3.17;;
66487;SDS011;53304;54.550;18.526;2023-04-16T13:48:08;5.60;;;2.80;;
66487;SDS011;53304;54.550;18.526;2023-04-16T13:50:33;7.03;;;2.60;;
66487;SDS011;53304;54.550;18.526;2023-04-16T13:53:02;5.32;;;2.97;;
66487;SDS011;53304;54.550;18.526;2023-04-16T13:55:32;6.57;;;2.83;;
66487;SDS011;53304;54.550;18.526;2023-04-16T13:57:57;4.55;;;2.72;;
66487;SDS011;53304;54.550;18.526;2023-04-16T14:00:24;4.45;;;2.88;;
66487;SDS011;53304;54.550;18.526;2023-04-16T14:02:52;5.38;;;2.63;;
66487;SDS011;53304;54.550;18.526;2023-04-16T14:05:17;7.03;;;2.78;;
66487;SDS011;53304;54.550;18.526;2023-04-16T14:07:43;3.97;;;2.28;;
66487;SDS011;53304;54.550;18.526;2023-04-16T14:10:11;3.80;;;2.40;;
66487;SDS011;53304;54.550;18.526;2023-04-16T14:12:37;6.30;;;2.40;;
66487;SDS011;53304;54.550;18.526;2023-04-16T14:15:05;4.45;;;2.53;;
66487;SDS011;53304;54.550;18.526;2023-04-16T14:17:33;5.07;;;2.40;;
66487;SDS011;53304;54.550;18.526;2023-04-16T14:19:59;5.38;;;2.80;;
66487;SDS011;53304;54.550;18.526;2023-04-16T14:22:24;5.25;;;2.42;;
66487;SDS011;53304;54.550;18.526;2023-04-16T14:24:52;4.65;;;2.50;;
66487;SDS011;53304;54.550;18.526;2023-04-16T14:27:20;5.95;;;2.53;;
66487;SDS011;53304;54.550;18.526;2023-04-16T14:29:48;4.88;;;2.75;;
66487;SDS011;53304;54.550;18.526;2023-04-16T14:32:15;4.90;;;2.50;;
66487;SDS011;53304;54.550;18.526;2023-04-16T14:34:43;8.85;;;2.63;;
66487;SDS011;53304;54.550;18.526;2023-04-16T14:37:09;8.85;;;2.72;;
66487;SDS011;53304;54.550;18.526;2023-04-16T14:39:40;3.85;;;2.33;;
66487;SDS011;53304;54.550;18.526;2023-04-16T14:42:08;6.10;;;2.55;;
66487;SDS011;53304;54.550;18.526;2023-04-16T14:44:38;5.75;;;2.90;;
66487;SDS011;53304;54.550;18.526;2023-04-16T14:47:03;11.15;;;2.92;;
66487;SDS011;53304;54.550;18.526;2023-04-16T14:49:29;10.88;;;3.33;;